createdAt,value
2023-01-03T00:01:32.597Z,10.14
2023-01-03T00:04:01.196Z,10.13
2023-01-03T00:06:38.195Z,10.06
2023-01-03T00:09:08.760Z,10.03
2023-01-03T00:11:56.397Z,10.04
2023-01-03T00:14:29.864Z,9.99
2023-01-03T00:16:59.998Z,9.98
2023-01-03T00:19:29.434Z,9.92
2023-01-03T00:21:56.995Z,9.92
2023-01-03T00:24:24.557Z,9.89
2023-01-03T00:26:51.962Z,9.86
2023-01-03T00:29:19.530Z,9.86
2023-01-03T00:31:46.925Z,9.84
2023-01-03T00:34:14.028Z,9.81
2023-01-03T00:36:41.885Z,9.84
2023-01-03T00:39:09.074Z,9.77
2023-01-03T00:41:36.182Z,9.79
2023-01-03T00:44:04.033Z,9.76
2023-01-03T00:46:31.325Z,9.75
2023-01-03T00:48:58.436Z,9.71
2023-01-03T00:51:28.827Z,9.70
2023-01-03T00:53:56.699Z,9.64
2023-01-03T00:56:26.389Z,9.60
2023-01-03T00:58:54.008Z,9.62
2023-01-03T01:01:25.958Z,9.61
2023-01-03T01:04:00.082Z,9.58
2023-01-03T01:06:30.764Z,9.55
2023-01-03T01:08:59.569Z,9.50
2023-01-03T01:11:27.975Z,9.44
2023-01-03T01:13:56.767Z,9.32
2023-01-03T01:16:30.262Z,9.30
2023-01-03T01:19:00.138Z,9.23
2023-01-03T01:21:31.578Z,9.22
2023-01-03T01:24:00.247Z,9.14
2023-01-03T01:26:27.642Z,9.15
2023-01-03T01:28:55.332Z,9.12
2023-01-03T01:31:24.963Z,9.06
2023-01-03T01:33:53.572Z,9.01
2023-01-03T01:36:33.213Z,9.00
2023-01-03T01:39:21.845Z,8.96
2023-01-03T01:42:13.722Z,8.86
2023-01-03T01:44:54.671Z,8.83
2023-01-03T01:47:33.966Z,8.82
2023-01-03T01:50:39.389Z,8.80
2023-01-03T01:53:11.589Z,8.75
2023-01-03T01:55:47.314Z,8.70
2023-01-03T01:58:14.869Z,8.63
2023-01-03T02:00:43.943Z,8.56
2023-01-03T02:03:12.297Z,8.67
2023-01-03T02:05:44.434Z,8.58
2023-01-03T02:08:13.041Z,8.57
2023-01-03T02:11:20.751Z,8.51
2023-01-03T02:14:06.208Z,8.48
2023-01-03T02:16:48.527Z,8.45
2023-01-03T02:20:08.242Z,8.39
2023-01-03T02:22:49.105Z,8.38
2023-01-03T02:25:53.959Z,8.32
2023-01-03T02:28:26.673Z,8.31
2023-01-03T02:31:03.164Z,8.30
2023-01-03T02:33:51.731Z,8.28
2023-01-03T02:37:01.518Z,8.27
2023-01-03T02:39:45.370Z,8.25
2023-01-03T02:42:54.366Z,8.24
2023-01-03T02:46:00.276Z,8.21
2023-01-03T02:48:30.474Z,8.15
2023-01-03T02:51:01.996Z,8.11
2023-01-03T02:53:37.846Z,8.11
2023-01-03T02:56:08.608Z,8.05
2023-01-03T02:58:38.170Z,8.04
2023-01-03T03:01:09.037Z,7.99
2023-01-03T03:03:39.127Z,7.94
2023-01-03T03:06:12.181Z,7.94
2023-01-03T03:08:39.517Z,7.92
2023-01-03T03:11:25.790Z,7.90
2023-01-03T03:14:01.965Z,7.83
2023-01-03T03:16:48.099Z,7.84
2023-01-03T03:19:47.697Z,7.90
2023-01-03T03:23:03.590Z,7.91
2023-01-03T03:25:36.221Z,7.93
2023-01-03T03:28:28.048Z,7.96
2023-01-03T03:30:58.941Z,7.99
2023-01-03T03:33:29.191Z,8.04
2023-01-03T03:36:14.492Z,8.07
2023-01-03T03:38:45.051Z,8.08
2023-01-03T03:41:45.818Z,8.12
2023-01-03T03:44:49.501Z,8.14
2023-01-03T03:47:32.363Z,8.09
2023-01-03T03:50:08.780Z,8.09
2023-01-03T03:52:36.955Z,8.10
2023-01-03T03:55:13.701Z,8.11
2023-01-03T03:57:49.384Z,8.05
2023-01-03T04:00:23.337Z,8.09
2023-01-03T04:02:51.464Z,8.10
2023-01-03T04:05:22.182Z,8.10
2023-01-03T04:07:50.022Z,8.07
2023-01-03T04:10:20.544Z,8.08
2023-01-03T04:12:48.911Z,8.10
2023-01-03T04:15:16.763Z,8.11
2023-01-03T04:17:44.442Z,8.10
2023-01-03T04:20:12.253Z,8.13
2023-01-03T04:22:39.541Z,8.19
2023-01-03T04:25:07.504Z,8.15
2023-01-03T04:27:34.699Z,8.19
2023-01-03T04:30:01.816Z,8.19
2023-01-03T04:32:29.019Z,8.20
2023-01-03T04:34:56.044Z,7.99
2023-01-03T04:37:23.107Z,8.24
2023-01-03T04:39:50.201Z,8.24
2023-01-03T04:42:35.581Z,8.26
2023-01-03T04:45:02.674Z,8.20
2023-01-03T04:47:29.790Z,8.15
2023-01-03T04:49:56.829Z,8.09
2023-01-03T04:52:23.965Z,8.02
2023-01-03T04:54:51.075Z,7.91
2023-01-03T04:57:18.166Z,7.82
2023-01-03T04:59:45.236Z,7.78
2023-01-03T05:02:12.523Z,7.72
2023-01-03T05:04:39.840Z,7.66
2023-01-03T05:07:07.469Z,7.62
2023-01-03T05:09:35.051Z,7.60
2023-01-03T05:12:02.090Z,7.55
2023-01-03T05:14:29.201Z,7.58
2023-01-03T05:16:56.459Z,7.40
2023-01-03T05:19:23.746Z,7.54
2023-01-03T05:22:09.453Z,7.50
2023-01-03T05:24:55.366Z,7.51
2023-01-03T05:27:22.861Z,7.48
2023-01-03T05:29:53.156Z,7.46
2023-01-03T05:32:20.927Z,7.38
2023-01-03T05:34:48.105Z,7.33
2023-01-03T05:37:15.078Z,7.38
2023-01-03T05:39:42.114Z,7.39
2023-01-03T05:42:09.205Z,7.35
2023-01-03T05:44:36.940Z,7.31
2023-01-03T05:47:05.110Z,7.27
2023-01-03T05:49:32.308Z,7.24
2023-01-03T05:51:59.347Z,7.19
2023-01-03T05:54:26.477Z,7.06
2023-01-03T05:56:53.595Z,7.16
2023-01-03T05:59:21.373Z,7.12
2023-01-03T06:01:49.435Z,7.06
2023-01-03T06:04:16.707Z,7.02
2023-01-03T06:06:43.820Z,7.00
2023-01-03T06:09:11.235Z,7.01
2023-01-03T06:11:40.259Z,6.94
2023-01-03T06:14:07.852Z,6.88
2023-01-03T06:17:07.296Z,6.86
2023-01-03T06:19:34.441Z,6.78
2023-01-03T06:22:05.611Z,6.73
2023-01-03T06:24:37.207Z,6.68
2023-01-03T06:27:04.353Z,6.69
2023-01-03T06:29:31.449Z,6.66
2023-01-03T06:32:02.175Z,6.59
2023-01-03T06:34:32.317Z,6.65
2023-01-03T06:36:59.334Z,6.57
2023-01-03T06:39:26.409Z,6.53
2023-01-03T06:41:53.551Z,6.52
2023-01-03T06:44:20.744Z,6.54
2023-01-03T06:47:06.210Z,6.54
2023-01-03T06:49:51.691Z,6.45
2023-01-03T06:52:37.568Z,6.41
2023-01-03T06:55:04.964Z,6.44
2023-01-03T06:57:32.150Z,6.43
2023-01-03T06:59:59.680Z,6.38
2023-01-03T07:02:27.028Z,6.41
2023-01-03T07:04:54.429Z,6.40
2023-01-03T07:07:21.673Z,6.34
2023-01-03T07:09:48.792Z,6.34
2023-01-03T07:12:38.318Z,6.33
2023-01-03T07:15:05.912Z,6.34
2023-01-03T07:17:32.949Z,6.35
2023-01-03T07:20:00.038Z,6.35
2023-01-03T07:22:27.706Z,6.35
2023-01-03T07:24:54.846Z,6.30
2023-01-03T07:27:22.210Z,6.27
2023-01-03T07:29:49.298Z,6.27
2023-01-03T07:32:16.547Z,6.24
2023-01-03T07:34:43.532Z,6.18
2023-01-03T07:37:10.623Z,6.10
2023-01-03T07:39:37.812Z,6.12
2023-01-03T07:42:23.327Z,6.07
2023-01-03T07:44:50.403Z,6.09
2023-01-03T07:47:17.525Z,6.08
2023-01-03T07:49:44.568Z,6.13
2023-01-03T07:52:11.609Z,6.11
2023-01-03T07:54:38.765Z,6.07
2023-01-03T07:57:06.055Z,6.07
2023-01-03T07:59:33.143Z,6.06
2023-01-03T08:02:00.298Z,5.87
2023-01-03T08:04:27.863Z,5.92
2023-01-03T08:06:55.025Z,6.02
2023-01-03T08:09:40.660Z,6.00
2023-01-03T08:12:28.344Z,5.97
2023-01-03T08:14:55.415Z,5.86
2023-01-03T08:17:22.578Z,6.00
2023-01-03T08:19:49.761Z,6.07
2023-01-03T08:22:17.105Z,6.07
2023-01-03T08:24:44.202Z,6.17
2023-01-03T08:27:11.306Z,6.22
2023-01-03T08:29:38.448Z,6.31
2023-01-03T08:32:06.723Z,6.29
2023-01-03T08:34:37.182Z,6.26
2023-01-03T08:37:11.261Z,6.28
2023-01-03T08:39:47.243Z,6.36
2023-01-03T08:42:16.690Z,6.39
2023-01-03T08:44:45.394Z,6.55
2023-01-03T08:47:14.986Z,6.69
2023-01-03T08:49:42.790Z,6.78
2023-01-03T08:52:09.938Z,6.86
2023-01-03T08:54:37.183Z,6.89
2023-01-03T08:57:04.303Z,6.90
2023-01-03T08:59:31.767Z,6.90
2023-01-03T09:02:00.432Z,6.85
2023-01-03T09:04:27.890Z,6.84
2023-01-03T09:06:55.105Z,6.85
2023-01-03T09:09:22.357Z,6.75
2023-01-03T09:11:49.722Z,6.77
2023-01-03T09:14:16.822Z,6.64
2023-01-03T09:16:48.726Z,6.66
2023-01-03T09:19:16.585Z,6.70
2023-01-03T09:21:43.713Z,6.66
2023-01-03T09:24:10.806Z,6.65
2023-01-03T09:26:38.004Z,6.65
2023-01-03T09:29:05.171Z,6.66
2023-01-03T09:31:35.076Z,6.63
2023-01-03T09:34:04.863Z,6.65
2023-01-03T09:36:32.606Z,6.56
2023-01-03T09:38:59.727Z,6.62
2023-01-03T09:41:28.207Z,6.61
2023-01-03T09:44:08.195Z,6.68
2023-01-03T09:46:36.186Z,6.61
2023-01-03T09:49:06.091Z,6.70
2023-01-03T09:51:59.209Z,6.74
2023-01-03T09:54:52.477Z,6.74
2023-01-03T09:57:42.978Z,6.73
2023-01-03T10:00:39.807Z,6.73
2023-01-03T10:03:49.840Z,6.77
2023-01-03T10:06:47.671Z,6.81
2023-01-03T10:09:41.622Z,6.76
2023-01-03T10:12:41.595Z,6.82
2023-01-03T10:15:31.825Z,6.85
2023-01-03T10:18:26.588Z,6.86
2023-01-03T10:21:00.676Z,6.87
2023-01-03T10:23:29.451Z,6.91
2023-01-03T10:25:57.256Z,6.92
2023-01-03T10:28:36.593Z,6.91
2023-01-03T10:31:25.844Z,6.86
2023-01-03T10:33:52.956Z,6.81
2023-01-03T10:36:22.130Z,6.79
2023-01-03T10:39:02.092Z,6.51
2023-01-03T10:41:44.536Z,6.76
2023-01-03T10:44:29.437Z,6.79
2023-01-03T10:47:08.610Z,6.73
2023-01-03T10:49:35.751Z,6.79
2023-01-03T10:52:02.864Z,6.79
2023-01-03T10:54:46.937Z,6.75
2023-01-03T10:57:55.832Z,6.74
2023-01-03T11:00:29.020Z,6.69
2023-01-03T11:03:09.914Z,6.68
2023-01-03T11:05:38.105Z,6.69
2023-01-03T11:08:13.609Z,6.72
2023-01-03T11:11:01.016Z,6.72
2023-01-03T11:13:37.383Z,6.73
2023-01-03T11:16:14.340Z,6.66
2023-01-03T11:18:43.022Z,6.64
2023-01-03T11:21:26.621Z,6.71
2023-01-03T11:24:18.340Z,6.73
2023-01-03T11:27:24.024Z,6.71
2023-01-03T11:30:26.393Z,6.66
2023-01-03T11:33:22.680Z,6.65
2023-01-03T11:36:12.491Z,6.61
2023-01-03T11:38:52.118Z,6.66
2023-01-03T11:41:51.521Z,6.79
2023-01-03T11:44:39.363Z,6.82
2023-01-03T11:47:30.615Z,6.85
2023-01-03T11:50:28.067Z,6.81
2023-01-03T11:53:16.689Z,6.77
2023-01-03T11:56:07.328Z,6.65
2023-01-03T11:58:52.443Z,6.62
2023-01-03T12:01:25.570Z,6.62
2023-01-03T12:04:13.582Z,6.62
2023-01-03T12:10:08.396Z,6.60
2023-01-03T12:12:58.619Z,6.71
2023-01-03T12:15:32.124Z,6.69
2023-01-03T12:18:23.032Z,6.64
2023-01-03T12:20:57.454Z,6.64
2023-01-03T12:23:49.103Z,6.63
2023-01-03T12:26:17.559Z,6.64
2023-01-03T12:29:20.325Z,6.72
2023-01-03T12:32:09.563Z,6.74
2023-01-03T12:34:50.427Z,6.65
2023-01-03T12:37:20.746Z,6.74
2023-01-03T12:39:50.458Z,6.71
2023-01-03T12:42:48.015Z,6.73
2023-01-03T12:45:15.253Z,6.77
2023-01-03T12:47:54.186Z,6.81
2023-01-03T12:50:30.433Z,6.84
2023-01-03T12:53:14.689Z,6.89
2023-01-03T12:56:08.332Z,6.95
2023-01-03T12:59:00.313Z,6.99
2023-01-03T13:01:34.835Z,7.05
2023-01-03T13:04:27.626Z,7.08
2023-01-03T13:07:12.241Z,7.06
2023-01-03T13:09:44.974Z,6.96
2023-01-03T13:12:19.258Z,6.85
2023-01-03T13:14:54.655Z,6.78
2023-01-03T13:17:29.124Z,6.78
2023-01-03T13:20:18.584Z,6.78
2023-01-03T13:22:52.229Z,6.75
2023-01-03T13:25:42.551Z,6.73
2023-01-03T13:28:21.234Z,6.70
2023-01-03T13:30:48.890Z,6.70
2023-01-03T13:33:19.156Z,6.71
2023-01-03T13:35:46.116Z,6.68
2023-01-03T13:38:39.312Z,6.61
2023-01-03T13:41:32.289Z,6.50
2023-01-03T13:44:09.802Z,6.44
2023-01-03T13:46:42.195Z,6.42
2023-01-03T13:49:19.396Z,6.37
2023-01-03T13:51:51.996Z,6.31
2023-01-03T13:54:19.064Z,6.26
2023-01-03T13:56:46.153Z,6.21
2023-01-03T13:59:18.019Z,6.18
2023-01-03T14:01:51.129Z,6.16
2023-01-03T14:04:49.125Z,6.16
2023-01-03T14:07:47.819Z,6.16
2023-01-03T14:10:47.055Z,6.10
2023-01-03T14:13:26.435Z,6.13
2023-01-03T14:16:39.895Z,6.13
2023-01-03T14:19:18.143Z,6.17
2023-01-03T14:21:54.734Z,6.19
2023-01-03T14:24:31.773Z,6.21
2023-01-03T14:27:14.777Z,6.21
2023-01-03T14:29:52.660Z,6.06
2023-01-03T14:32:27.531Z,6.10
2023-01-03T14:34:57.868Z,6.08
2023-01-03T14:37:26.714Z,6.05
2023-01-03T14:39:56.413Z,6.04
2023-01-03T14:42:24.645Z,5.99
2023-01-03T14:44:56.858Z,5.97
2023-01-03T14:47:31.562Z,5.98
2023-01-03T14:49:59.070Z,5.89
2023-01-03T14:52:33.217Z,5.98
2023-01-03T14:55:07.251Z,5.94
2023-01-03T14:57:39.340Z,5.88
2023-01-03T15:00:08.612Z,5.90
2023-01-03T15:02:39.419Z,5.89
2023-01-03T15:05:27.423Z,5.84
2023-01-03T15:07:55.548Z,5.84
2023-01-03T15:10:41.394Z,5.76
2023-01-03T15:13:19.656Z,5.70
2023-01-03T15:15:54.947Z,5.51
2023-01-03T15:18:24.872Z,5.61
2023-01-03T15:20:55.407Z,5.62
2023-01-03T15:23:29.158Z,5.58
2023-01-03T15:25:56.275Z,5.52
2023-01-03T15:28:25.743Z,5.49
2023-01-03T15:30:55.960Z,5.44
2023-01-03T15:33:35.001Z,5.40
2023-01-03T15:36:19.160Z,5.39
2023-01-03T15:38:48.984Z,5.22
2023-01-03T15:41:46.704Z,5.32
2023-01-03T15:44:19.182Z,5.28
2023-01-03T15:46:47.080Z,5.24
2023-01-03T15:49:17.033Z,5.24
2023-01-03T15:51:44.220Z,5.19
2023-01-03T15:54:16.405Z,5.17
2023-01-03T15:57:00.436Z,5.13
2023-01-03T15:59:33.726Z,5.16
2023-01-03T16:02:03.165Z,5.18
2023-01-03T16:04:30.399Z,5.20
2023-01-03T16:06:57.486Z,5.24
2023-01-03T16:09:24.536Z,5.25
2023-01-03T16:11:56.655Z,5.23
2023-01-03T16:14:28.993Z,5.27
2023-01-03T16:16:58.029Z,5.29
2023-01-03T16:19:27.122Z,5.28
2023-01-03T16:22:32.460Z,5.23
2023-01-03T16:24:45.906Z,5.20
2023-01-03T16:27:20.987Z,5.22
2023-01-03T16:29:48.497Z,5.19
2023-01-03T16:32:21.681Z,5.17
2023-01-03T16:34:49.389Z,5.11
2023-01-03T16:37:17.139Z,5.09
2023-01-03T16:39:48.304Z,5.04
2023-01-03T16:42:15.917Z,5.04
2023-01-03T16:44:46.843Z,5.00
2023-01-03T16:47:22.342Z,5.03
2023-01-03T16:50:00.941Z,5.02
2023-01-03T16:52:34.312Z,5.03
2023-01-03T16:55:26.871Z,5.01
2023-01-03T16:57:55.273Z,5.01
2023-01-03T17:00:25.651Z,5.05
2023-01-03T17:02:56.198Z,5.02
2023-01-03T17:05:23.798Z,5.00
2023-01-03T17:07:53.475Z,5.01
2023-01-03T17:10:27.903Z,5.00
2023-01-03T17:12:59.506Z,5.01
2023-01-03T17:15:27.299Z,4.99
2023-01-03T17:17:54.495Z,5.03
2023-01-03T17:20:23.203Z,5.02
2023-01-03T17:22:54.371Z,4.99
2023-01-03T17:25:21.702Z,4.99
2023-01-03T17:27:59.602Z,4.97
2023-01-03T17:30:28.619Z,4.93
2023-01-03T17:32:55.791Z,4.89
2023-01-03T17:35:22.960Z,4.96
2023-01-03T17:40:39.636Z,4.84
2023-01-03T17:43:06.877Z,4.87
2023-01-03T17:45:52.390Z,4.87
2023-01-03T17:48:38.130Z,4.84
2023-01-03T17:51:05.348Z,4.84
2023-01-03T17:53:32.672Z,4.81
2023-01-03T17:55:59.798Z,4.76
2023-01-03T17:58:33.554Z,4.70
2023-01-03T18:01:00.833Z,4.69
2023-01-03T18:03:28.252Z,4.68
2023-01-03T18:05:56.307Z,4.65
2023-01-03T18:08:25.125Z,4.67
2023-01-03T18:10:55.920Z,4.50
2023-01-03T18:13:31.261Z,4.65
2023-01-03T18:15:59.082Z,4.63
2023-01-03T18:18:28.184Z,4.61
2023-01-03T18:20:56.280Z,4.48
2023-01-03T18:23:42.219Z,4.53
2023-01-03T18:26:14.125Z,4.50
2023-01-03T18:28:41.297Z,4.50
2023-01-03T18:31:17.332Z,4.49
2023-01-03T18:33:45.258Z,4.43
2023-01-03T18:36:27.949Z,4.47
2023-01-03T18:39:02.067Z,4.46
2023-01-03T18:41:31.148Z,4.41
2023-01-03T18:43:58.541Z,4.40
2023-01-03T18:46:28.546Z,4.33
2023-01-03T18:48:56.171Z,4.33
2023-01-03T18:51:27.348Z,4.30
2023-01-03T18:53:59.215Z,4.27
2023-01-03T18:56:32.311Z,4.25
2023-01-03T18:59:03.415Z,4.23
2023-01-03T19:01:31.104Z,4.21
2023-01-03T19:03:58.551Z,4.17
2023-01-03T19:06:34.035Z,4.12
2023-01-03T19:09:04.727Z,4.04
2023-01-03T19:11:36.118Z,4.07
2023-01-03T19:14:04.373Z,4.02
2023-01-03T19:16:36.655Z,4.02
2023-01-03T19:19:05.212Z,3.98
2023-01-03T19:21:39.120Z,3.92
2023-01-03T19:24:18.053Z,3.77
2023-01-03T19:26:50.923Z,3.80
2023-01-03T19:29:22.629Z,3.76
2023-01-03T19:31:52.224Z,3.74
2023-01-03T19:34:22.195Z,3.71
2023-01-03T19:36:49.990Z,3.67
2023-01-03T19:39:24.079Z,3.50
2023-01-03T19:42:14.514Z,3.64
2023-01-03T19:44:42.521Z,3.60
2023-01-03T19:47:15.035Z,3.54
2023-01-03T19:49:43.494Z,3.56
2023-01-03T19:52:10.674Z,3.55
2023-01-03T19:54:37.807Z,3.48
2023-01-03T19:57:05.665Z,3.53
2023-01-03T19:59:35.250Z,3.48
2023-01-03T20:02:25.376Z,3.44
2023-01-03T20:04:56.044Z,3.49
2023-01-03T20:07:23.382Z,3.49
2023-01-03T20:09:50.450Z,3.49
2023-01-03T20:12:24.646Z,3.46
2023-01-03T20:14:55.023Z,3.39
2023-01-03T20:17:26.642Z,3.39
2023-01-03T20:19:54.079Z,3.33
2023-01-03T20:23:02.368Z,3.29
2023-01-03T20:25:30.978Z,3.22
2023-01-03T20:27:59.816Z,3.21
2023-01-03T20:30:29.639Z,3.16
2023-01-03T20:32:57.277Z,3.13
2023-01-03T20:36:08.509Z,3.10
2023-01-03T20:38:17.022Z,3.08
2023-01-03T20:40:44.128Z,3.06
2023-01-03T20:43:14.919Z,3.00
2023-01-03T20:45:42.206Z,2.96
2023-01-03T20:48:19.289Z,2.91
2023-01-03T20:50:50.398Z,2.88
2023-01-03T20:53:20.587Z,2.86
2023-01-03T20:55:48.156Z,2.78
2023-01-03T20:58:25.485Z,2.81
2023-01-03T21:00:56.936Z,2.80
2023-01-03T21:03:28.977Z,2.77
2023-01-03T21:05:56.448Z,2.73
2023-01-03T21:08:42.186Z,2.76
2023-01-03T21:11:09.213Z,2.74
2023-01-03T21:13:37.159Z,2.71
2023-01-03T21:16:28.365Z,2.72
2023-01-03T21:18:55.906Z,2.71
2023-01-03T21:21:24.601Z,2.66
2023-01-03T21:23:51.784Z,2.70
2023-01-03T21:26:19.824Z,2.70
2023-01-03T21:28:46.942Z,2.66
2023-01-03T21:31:19.286Z,2.65
2023-01-03T21:33:46.909Z,2.65
2023-01-03T21:36:23.007Z,2.65
2023-01-03T21:38:51.269Z,2.69
2023-01-03T21:41:21.188Z,2.67
2023-01-03T21:43:48.352Z,2.60
2023-01-03T21:46:17.453Z,2.63
2023-01-03T21:48:45.237Z,2.61
2023-01-03T21:51:14.102Z,2.62
2023-01-03T21:53:42.400Z,2.62
2023-01-03T21:56:15.401Z,2.61
2023-01-03T21:58:42.511Z,2.66
2023-01-03T22:01:18.114Z,2.63
2023-01-03T22:04:03.887Z,2.65
2023-01-03T22:06:31.159Z,2.63
2023-01-03T22:09:00.215Z,2.57
2023-01-03T22:11:28.673Z,2.57
2023-01-03T22:13:58.595Z,2.56
2023-01-03T22:16:26.265Z,2.54
2023-01-03T22:18:53.565Z,2.51
2023-01-03T22:21:21.483Z,2.43
2023-01-03T22:23:48.650Z,2.44
2023-01-03T22:26:16.614Z,2.39
2023-01-03T22:28:47.564Z,2.42
2023-01-03T22:31:17.681Z,2.40
2023-01-03T22:33:49.136Z,2.36
2023-01-03T22:36:17.023Z,2.28
2023-01-03T22:38:44.845Z,2.32
2023-01-03T22:41:17.433Z,2.34
2023-01-03T22:43:45.447Z,2.35
2023-01-03T22:46:17.157Z,2.31
2023-01-03T22:48:45.263Z,2.26
2023-01-03T22:51:14.603Z,2.26
2023-01-03T22:53:43.562Z,2.19
2023-01-03T22:56:15.379Z,2.18
2023-01-03T22:58:43.812Z,2.13
2023-01-03T23:01:13.120Z,2.09
2023-01-03T23:03:40.401Z,2.06
2023-01-03T23:06:09.518Z,2.04
2023-01-03T23:08:37.046Z,1.95
2023-01-03T23:11:33.367Z,1.92
2023-01-03T23:14:12.333Z,1.74
2023-01-03T23:16:40.457Z,1.91
2023-01-03T23:19:11.923Z,1.90
2023-01-03T23:21:39.409Z,1.88
2023-01-03T23:24:07.288Z,1.90
2023-01-03T23:26:34.350Z,1.88
2023-01-03T23:29:01.513Z,1.82
2023-01-03T23:31:29.015Z,1.84
2023-01-03T23:33:56.893Z,1.84
2023-01-03T23:36:24.621Z,1.82
2023-01-03T23:38:51.982Z,1.84
2023-01-03T23:41:19.995Z,1.80
2023-01-03T23:43:47.148Z,1.80
2023-01-03T23:46:17.501Z,1.83
2023-01-03T23:48:44.912Z,1.82
2023-01-03T23:51:12.983Z,1.88
2023-01-03T23:53:42.460Z,1.90
2023-01-03T23:56:13.606Z,1.89
2023-01-03T23:58:41.127Z,1.90
